Time;durP1;ratioP1;P1;durP2;ratioP2;P2;SDS_P1;SDS_P2;PMS_P1;PMS_P2;Temp;Humidity;BMP_temperature;BMP_pressure;BME280_temperature;BME280_humidity;BME280_pressure;Samples;Min_cycle;Max_cycle;Signal;HPM_P1;HPM_P2
2022/03/24 00:02:12;;;;;;;51.77;35.13;;;;;;;4.93;71.78;102868.03;5011944;28;20045;-81
2022/03/24 00:04:38;;;;;;;50.53;35.73;;;;;;;4.83;71.88;102841.91;5014673;28;20060;-80
2022/03/24 00:07:04;;;;;;;53.87;36.17;;;;;;;4.86;72.85;102863.16;5014532;28;21565;-80
2022/03/24 00:09:29;;;;;;;53.07;35.20;;;;;;;4.82;72.67;102868.91;4971835;28;1234559;-80
2022/03/24 00:11:55;;;;;;;53.57;34.03;;;;;;;4.74;74.17;102870.34;5015522;28;20049;-81
2022/03/24 00:14:21;;;;;;;52.63;34.70;;;;;;;4.77;74.42;102860.34;5015746;28;20052;-81
2022/03/24 00:16:47;;;;;;;49.97;34.60;;;;;;;4.59;74.88;102849.28;5015783;28;20103;-81
2022/03/24 00:19:13;;;;;;;53.10;36.10;;;;;;;4.63;74.91;102867.69;5015021;28;20037;-81
2022/03/24 00:21:38;;;;;;;60.33;41.73;;;;;;;4.62;73.59;102865.97;5013779;28;20048;-81
2022/03/24 00:24:08;;;;;;;63.17;43.03;;;;;;;4.57;72.76;102855.63;5004906;28;20383;-80
2022/03/24 00:26:33;;;;;;;62.77;41.00;;;;;;;4.55;73.00;102857.56;5015104;28;20041;-80
2022/03/24 00:28:59;;;;;;;57.73;39.10;;;;;;;4.58;73.17;102859.13;5014500;28;21313;-81
2022/03/24 00:31:24;;;;;;;51.17;36.37;;;;;;;4.51;73.71;102853.41;5014750;28;20042;-81
2022/03/24 00:33:50;;;;;;;56.43;39.10;;;;;;;4.48;74.35;102850.97;5014897;28;20041;-80
2022/03/24 00:36:16;;;;;;;56.00;39.33;;;;;;;4.46;73.96;102850.25;5013631;28;20077;-81
2022/03/24 00:38:41;;;;;;;59.67;41.33;;;;;;;4.42;73.12;102838.06;5015366;28;20517;-80
2022/03/24 00:41:07;;;;;;;59.93;40.60;;;;;;;4.37;74.17;102843.78;5014983;28;20382;-80
2022/03/24 00:43:33;;;;;;;61.07;40.10;;;;;;;4.40;74.35;102850.72;5015643;28;20040;-80
2022/03/24 00:45:59;;;;;;;55.20;37.73;;;;;;;4.35;74.48;102852.91;5015129;28;20450;-80
2022/03/24 00:48:25;;;;;;;60.37;40.13;;;;;;;4.38;75.52;102850.00;5015169;28;20444;-80
2022/03/24 00:50:51;;;;;;;59.13;38.57;;;;;;;4.26;75.89;102848.28;5012544;28;20071;-81
2022/03/24 00:53:17;;;;;;;58.43;40.47;;;;;;;4.21;76.81;102841.44;5013772;28;20258;-81
2022/03/24 00:55:43;;;;;;;60.27;41.17;;;;;;;4.21;77.03;102846.81;5015627;28;20037;-80
2022/03/24 00:58:10;;;;;;;58.13;39.73;;;;;;;4.18;76.83;102847.06;5019379;28;20495;-81
2022/03/24 01:00:38;;;;;;;62.33;41.90;;;;;;;4.05;76.59;102835.56;5019122;28;20041;-80
2022/03/24 01:03:06;;;;;;;59.53;39.57;;;;;;;4.08;76.25;102846.09;5018300;28;20037;-81
2022/03/24 01:05:32;;;;;;;57.00;36.90;;;;;;;4.10;76.42;102838.75;5018704;28;20389;-80
2022/03/24 01:07:58;;;;;;;62.43;40.53;;;;;;;4.11;75.96;102832.41;5019183;28;20603;-81
2022/03/24 01:10:23;;;;;;;54.70;38.27;;;;;;;4.17;76.00;102837.28;5018424;28;20050;-81
2022/03/24 01:12:49;;;;;;;55.60;38.00;;;;;;;4.11;75.21;102840.47;5018693;28;20061;-81
2022/03/24 01:15:18;;;;;;;60.60;41.20;;;;;;;4.05;76.08;102835.56;5016924;28;20037;-81
2022/03/24 01:17:44;;;;;;;62.97;40.60;;;;;;;4.06;76.15;102842.66;5019062;28;20084;-81
2022/03/24 01:20:10;;;;;;;61.43;42.00;;;;;;;3.99;75.75;102836.06;5018164;28;20051;-81
2022/03/24 01:22:36;;;;;;;58.13;40.30;;;;;;;4.03;76.30;102832.16;5018582;28;20038;-81
2022/03/24 01:25:03;;;;;;;59.40;40.57;;;;;;;3.98;75.93;102839.72;5018561;28;20539;-81
2022/03/24 01:27:28;;;;;;;55.90;39.27;;;;;;;3.99;77.57;102844.94;5018567;28;20581;-81
2022/03/24 01:29:57;;;;;;;58.90;40.20;;;;;;;3.91;76.91;102833.13;5018394;28;20045;-81
2022/03/24 01:32:24;;;;;;;61.83;41.57;;;;;;;3.96;75.15;102833.63;5018628;28;20073;-81
2022/03/24 01:34:52;;;;;;;66.00;44.70;;;;;;;3.97;73.59;102822.78;5018460;28;20033;-81
2022/03/24 01:37:18;;;;;;;62.37;42.40;;;;;;;3.99;74.09;102825.34;5018021;28;20048;-81
2022/03/24 01:39:43;;;;;;;62.97;42.70;;;;;;;3.75;75.26;102823.56;5018571;28;20037;-81
2022/03/24 01:42:09;;;;;;;58.87;41.43;;;;;;;3.67;75.42;102816.13;5017953;28;20051;-81
2022/03/24 01:44:35;;;;;;;60.13;42.83;;;;;;;3.77;74.94;102823.44;5018643;28;20045;-81
2022/03/24 01:47:02;;;;;;;63.13;41.10;;;;;;;3.74;74.52;102802.25;5018024;28;20976;-80
2022/03/24 01:49:31;;;;;;;60.50;41.37;;;;;;;3.71;75.16;102811.38;5018444;28;20124;-81
2022/03/24 01:51:57;;;;;;;64.23;42.70;;;;;;;3.77;74.44;102808.22;5017904;28;20025;-80
2022/03/24 01:54:24;;;;;;;59.97;39.23;;;;;;;3.70;74.83;102804.31;5018173;28;20176;-81
2022/03/24 01:56:51;;;;;;;57.77;40.07;;;;;;;3.76;75.21;102811.88;5032891;28;20440;-81
2022/03/24 01:59:17;;;;;;;56.87;39.83;;;;;;;3.30;77.74;102802.00;5018149;28;20037;-80
2022/03/24 02:01:44;;;;;;;56.47;38.87;;;;;;;3.25;77.39;102810.38;5016041;28;20504;-81
2022/03/24 02:04:10;;;;;;;63.77;42.47;;;;;;;3.26;77.31;102800.50;5018176;28;20109;-81
2022/03/24 02:06:36;;;;;;;63.53;43.23;;;;;;;3.27;76.90;102802.22;5017389;28;20041;-81
2022/03/24 02:09:03;;;;;;;61.93;41.00;;;;;;;3.26;76.87;102797.81;5017363;28;20099;-81
2022/03/24 02:11:30;;;;;;;58.40;41.47;;;;;;;3.26;77.78;102797.81;5016766;28;20037;-81
2022/03/24 02:13:56;;;;;;;59.77;42.03;;;;;;;3.14;77.92;102796.91;5016326;28;20829;-80
2022/03/24 02:16:27;;;;;;;60.37;39.63;;;;;;;2.91;79.12;102815.56;5017763;28;20045;-80
2022/03/24 02:18:59;;;;;;;58.50;39.40;;;;;;;2.75;79.16;102797.09;5018025;28;22094;-81
2022/03/24 02:21:25;;;;;;;64.33;41.83;;;;;;;2.82;78.66;102803.69;5017217;28;20124;-81
2022/03/24 02:24:12;;;;;;;67.27;42.10;;;;;;;2.89;78.41;102800.56;5018487;28;20072;-80
2022/03/24 02:26:40;;;;;;;58.90;40.47;;;;;;;2.98;78.38;102799.91;5016904;28;20292;-80
2022/03/24 02:29:10;;;;;;;60.07;39.00;;;;;;;2.93;78.59;102800.22;5023737;28;20041;-80
2022/03/24 02:31:38;;;;;;;58.57;39.47;;;;;;;2.96;78.30;102793.78;5017176;28;20037;-81
2022/03/24 02:36:50;;;;;;;65.33;41.73;;;;;;;2.98;78.29;102802.59;5017432;28;20067;-80
2022/03/24 02:39:16;;;;;;;61.77;41.07;;;;;;;2.98;78.37;102797.22;5016541;28;20308;-80
2022/03/24 02:41:59;;;;;;;62.73;42.40;;;;;;;2.91;79.29;102796.81;5015648;28;20037;-80
2022/03/24 02:44:27;;;;;;;64.30;40.27;;;;;;;2.95;78.51;102806.34;5016754;28;20291;-80
2022/03/24 02:46:55;;;;;;;61.47;40.23;;;;;;;2.92;78.34;102797.66;5016422;28;20091;-80
2022/03/24 02:49:22;;;;;;;66.33;41.43;;;;;;;2.93;78.40;102797.53;5017020;28;20037;-81
2022/03/24 02:51:52;;;;;;;62.67;41.33;;;;;;;2.89;78.43;102803.25;5022382;28;20288;-80
2022/03/24 02:54:18;;;;;;;60.67;42.17;;;;;;;2.97;78.29;102806.22;5022699;28;20284;-80
2022/03/24 02:56:44;;;;;;;60.03;40.93;;;;;;;2.93;79.27;102808.25;5016737;28;20041;-80
2022/03/24 02:59:10;;;;;;;61.60;40.43;;;;;;;2.90;79.17;102805.81;5016623;28;20304;-80
2022/03/24 03:01:41;;;;;;;59.63;40.30;;;;;;;2.89;79.04;102806.78;5016367;28;20386;-80
2022/03/24 03:04:07;;;;;;;58.50;38.73;;;;;;;2.90;78.97;102808.50;5016760;28;20117;-80
2022/03/24 03:06:34;;;;;;;60.20;38.63;;;;;;;2.87;78.81;102803.38;5016204;28;20649;-80
2022/03/24 03:09:01;;;;;;;59.43;40.33;;;;;;;2.81;78.44;102806.47;5017085;28;20121;-80
2022/03/24 03:11:27;;;;;;;60.83;38.70;;;;;;;2.81;78.59;102798.44;5016327;28;20176;-80
2022/03/24 03:13:53;;;;;;;63.10;40.13;;;;;;;2.78;78.63;102798.69;5008182;28;20699;-81
2022/03/24 03:16:19;;;;;;;57.17;38.63;;;;;;;2.85;78.43;102798.09;5016177;28;20033;-80
2022/03/24 03:18:44;;;;;;;58.17;39.00;;;;;;;2.80;78.73;102800.28;5015646;28;20489;-80
2022/03/24 03:21:11;;;;;;;54.33;36.70;;;;;;;2.77;78.36;102789.78;5005240;28;20025;-80
2022/03/24 03:23:38;;;;;;;60.13;39.90;;;;;;;2.73;79.62;102796.34;5016487;28;20033;-81
2022/03/24 03:26:07;;;;;;;56.43;39.63;;;;;;;2.74;78.85;102789.19;5006244;28;20800;-80
2022/03/24 03:28:33;;;;;;;59.23;39.03;;;;;;;2.71;80.36;102792.94;5031281;28;20300;-80
2022/03/24 03:30:59;;;;;;;58.17;37.20;;;;;;;2.45;80.08;102774.25;5006633;28;20292;-80
2022/03/24 03:33:24;;;;;;;55.63;37.47;;;;;;;2.54;79.26;102788.78;5014300;28;21638;-80
2022/03/24 03:35:51;;;;;;;60.20;38.13;;;;;;;2.46;80.21;102796.50;5016281;28;20049;-81
2022/03/24 03:38:18;;;;;;;55.17;38.80;;;;;;;2.51;80.45;102794.38;5015589;28;20083;-80
2022/03/24 03:40:44;;;;;;;58.43;37.77;;;;;;;2.44;80.53;102795.78;5014233;28;20368;-81
2022/03/24 03:43:10;;;;;;;58.60;39.37;;;;;;;2.52;80.81;102799.59;5013933;28;20184;-80
2022/03/24 03:45:36;;;;;;;56.77;38.63;;;;;;;2.46;80.30;102791.16;5016218;28;20124;-80
2022/03/24 03:48:02;;;;;;;54.57;36.77;;;;;;;2.46;80.55;102797.38;5015534;28;20941;-81
2022/03/24 03:50:28;;;;;;;55.93;39.10;;;;;;;2.43;80.45;102788.72;5015834;28;20037;-81
2022/03/24 03:52:55;;;;;;;56.63;39.03;;;;;;;2.45;81.47;102801.03;5014196;28;20299;-80
2022/03/24 03:55:21;;;;;;;56.33;37.20;;;;;;;2.45;81.55;102794.78;5015263;28;20304;-80
2022/03/24 03:57:46;;;;;;;58.30;37.33;;;;;;;2.43;81.16;102796.75;5015145;28;20401;-80
2022/03/24 04:02:57;;;;;;;57.00;37.22;;;;;;;2.42;80.14;102798.56;5006651;28;20448;-80
2022/03/24 04:05:25;;;;;;;57.37;37.60;;;;;;;2.43;80.23;102797.59;5016004;28;20038;-80
2022/03/24 04:07:51;;;;;;;56.60;39.27;;;;;;;2.33;81.52;102807.25;5015480;28;20292;-80
2022/03/24 04:10:17;;;;;;;55.77;37.53;;;;;;;2.39;81.30;102805.94;5015690;28;20365;-80
2022/03/24 04:12:43;;;;;;;55.90;37.53;;;;;;;2.40;81.87;102807.66;5015606;28;20308;-80
2022/03/24 04:15:08;;;;;;;61.80;39.43;;;;;;;2.35;81.02;102805.31;5015793;28;20076;-80
2022/03/24 04:17:34;;;;;;;58.23;39.00;;;;;;;2.36;80.99;102809.69;5016001;28;20838;-80
2022/03/24 04:19:59;;;;;;;56.57;37.67;;;;;;;2.31;81.49;102809.16;5014333;28;20529;-80
2022/03/24 04:22:24;;;;;;;58.33;37.60;;;;;;;2.30;80.35;102802.97;4997151;28;20867;-80
2022/03/24 04:24:50;;;;;;;58.10;37.63;;;;;;;2.29;80.11;102806.59;5015676;28;20449;-80
2022/03/24 04:27:16;;;;;;;58.77;37.50;;;;;;;2.22;81.50;102799.13;5015194;28;20041;-81
2022/03/24 04:29:41;;;;;;;55.97;37.73;;;;;;;2.24;81.36;102802.53;4988030;28;20041;-80
2022/03/24 04:32:07;;;;;;;54.97;38.00;;;;;;;2.23;81.09;102809.72;5012950;28;20037;-80
2022/03/24 04:34:33;;;;;;;56.60;37.20;;;;;;;2.23;80.99;102808.84;5013798;28;20041;-81
2022/03/24 04:36:58;;;;;;;57.70;37.37;;;;;;;2.11;81.58;102808.75;5013771;28;20747;-80
2022/03/24 04:39:24;;;;;;;55.57;37.43;;;;;;;2.05;82.31;102801.16;5013925;28;20584;-81
2022/03/24 04:41:49;;;;;;;57.07;37.80;;;;;;;2.05;81.63;102803.84;5014597;28;20947;-81
2022/03/24 04:44:14;;;;;;;56.20;38.60;;;;;;;2.07;81.41;102803.72;5015086;28;20064;-81
2022/03/24 04:46:43;;;;;;;53.07;36.17;;;;;;;2.08;81.46;102808.13;5015242;28;20461;-80
2022/03/24 04:49:09;;;;;;;52.70;35.93;;;;;;;2.00;81.54;102804.16;5015024;28;20037;-80
2022/03/24 04:51:34;;;;;;;50.93;35.03;;;;;;;2.02;82.29;102804.91;5007350;28;20303;-81
2022/03/24 04:54:00;;;;;;;53.27;35.67;;;;;;;2.05;82.11;102819.88;5015163;28;20033;-81
2022/03/24 04:56:25;;;;;;;57.27;36.97;;;;;;;2.00;82.06;102816.69;4995109;28;20041;-81
2022/03/24 04:58:51;;;;;;;54.00;36.53;;;;;;;1.94;81.60;102807.25;5013052;28;20056;-81
2022/03/24 05:01:17;;;;;;;52.93;35.90;;;;;;;1.87;81.91;102805.13;5015098;28;20155;-80
2022/03/24 05:03:46;;;;;;;51.30;35.33;;;;;;;1.93;82.32;102812.72;5015268;28;20302;-80
2022/03/24 05:06:13;;;;;;;54.53;36.27;;;;;;;1.88;82.63;102806.81;5015338;28;20041;-80
2022/03/24 05:08:38;;;;;;;54.37;36.50;;;;;;;1.92;83.62;102814.53;5015104;28;20383;-80
2022/03/24 05:11:03;;;;;;;54.77;35.63;;;;;;;1.87;83.56;102810.47;5015101;28;20300;-80
2022/03/24 05:13:29;;;;;;;52.97;34.40;;;;;;;1.87;84.04;102811.31;5015197;28;20195;-80
2022/03/24 05:15:56;;;;;;;47.97;32.87;;;;;;;1.80;83.50;102810.88;5015491;28;20061;-80
2022/03/24 05:18:24;;;;;;;54.03;35.53;;;;;;;1.73;83.66;102820.31;5029477;28;20053;-80
2022/03/24 05:20:49;;;;;;;61.30;38.57;;;;;;;1.81;83.94;102823.31;5015929;28;20980;-80
2022/03/24 05:23:15;;;;;;;63.40;40.13;;;;;;;1.74;83.86;102815.78;5014658;28;20338;-80
2022/03/24 05:25:40;;;;;;;57.47;37.73;;;;;;;1.70;84.04;102823.19;5015227;28;20037;-80
2022/03/24 05:28:06;;;;;;;56.93;37.30;;;;;;;1.69;84.13;102816.97;5014523;28;20777;-80
2022/03/24 05:30:32;;;;;;;55.70;37.27;;;;;;;1.65;84.28;102822.66;5014961;28;20045;-80
2022/03/24 05:32:57;;;;;;;62.43;39.67;;;;;;;1.62;84.59;102828.16;5014297;28;20060;-80
2022/03/24 05:35:22;;;;;;;56.33;38.20;;;;;;;1.56;84.30;102812.56;5014586;28;20460;-80
2022/03/24 05:37:48;;;;;;;58.10;38.77;;;;;;;1.53;84.43;102821.66;5013284;28;20068;-80
2022/03/24 05:40:13;;;;;;;57.67;39.03;;;;;;;1.59;84.31;102828.38;5013930;28;20125;-80
2022/03/24 05:42:39;;;;;;;58.90;37.87;;;;;;;1.59;84.22;102825.72;5018662;28;20132;-81
2022/03/24 05:45:05;;;;;;;56.93;37.37;;;;;;;1.58;84.18;102824.88;5018852;28;20080;-81
2022/03/24 05:47:30;;;;;;;56.83;37.70;;;;;;;1.58;84.16;102832.00;4992407;28;20837;-81
2022/03/24 05:49:55;;;;;;;61.47;38.67;;;;;;;1.52;83.75;102809.25;5018445;28;20489;-81
2022/03/24 05:52:21;;;;;;;52.83;36.67;;;;;;;1.58;84.21;102826.66;5017782;28;20080;-81
2022/03/24 05:54:47;;;;;;;57.83;38.60;;;;;;;1.57;84.23;102827.66;5018475;28;20095;-80
2022/03/24 05:57:12;;;;;;;55.27;37.07;;;;;;;1.60;84.86;102825.59;5018041;28;20111;-81
2022/03/24 06:00:09;;;;;;;58.23;37.80;;;;;;;1.63;85.22;102824.53;5018371;28;20048;-80
2022/03/24 06:02:34;;;;;;;58.53;37.13;;;;;;;1.64;85.70;102824.44;5017623;28;21003;-80
2022/03/24 06:05:00;;;;;;;56.30;37.13;;;;;;;1.65;86.14;102830.66;5018083;28;20296;-80
2022/03/24 06:07:26;;;;;;;57.07;36.90;;;;;;;1.69;85.64;102829.50;5017457;28;20037;-80
2022/03/24 06:09:52;;;;;;;58.27;37.67;;;;;;;1.73;85.33;102830.13;5016390;28;20365;-81
2022/03/24 06:12:18;;;;;;;62.23;37.80;;;;;;;1.70;84.98;102825.88;5017775;28;20049;-81
2022/03/24 06:14:43;;;;;;;58.60;37.23;;;;;;;1.82;85.50;102837.50;5017753;28;20590;-81
2022/03/24 06:17:09;;;;;;;57.53;35.37;;;;;;;1.86;85.87;102833.66;5017811;28;20299;-80
2022/03/24 06:19:36;;;;;;;59.87;37.50;;;;;;;1.93;86.17;102839.44;5017380;28;20464;-80
2022/03/24 06:22:05;;;;;;;58.03;37.90;;;;;;;1.98;86.46;102829.28;5017689;28;20029;-80
2022/03/24 06:24:31;;;;;;;64.37;39.90;;;;;;;2.08;86.81;102841.06;5015978;28;20855;-80
2022/03/24 06:26:57;;;;;;;63.80;39.40;;;;;;;2.14;85.85;102839.78;5017340;28;20292;-81
2022/03/24 06:29:22;;;;;;;62.00;39.43;;;;;;;2.24;85.99;102838.16;5032324;28;20299;-80
2022/03/24 06:31:48;;;;;;;59.17;39.47;;;;;;;2.32;86.08;102837.63;5017658;28;20045;-81
2022/03/24 06:34:15;;;;;;;62.93;40.17;;;;;;;2.44;85.37;102835.91;5032209;28;20377;-80
2022/03/24 06:36:41;;;;;;;64.23;38.57;;;;;;;2.57;85.06;102839.44;5017282;28;20025;-82
2022/03/24 06:39:06;;;;;;;64.07;40.33;;;;;;;2.68;84.56;102838.66;5016956;28;20389;-80
2022/03/24 06:41:32;;;;;;;56.53;37.67;;;;;;;2.78;84.66;102847.72;5016694;28;20470;-80
2022/03/24 06:43:59;;;;;;;61.67;38.63;;;;;;;2.85;85.06;102843.63;5015818;28;20076;-80
2022/03/24 06:46:26;;;;;;;57.60;38.50;;;;;;;3.02;84.87;102844.22;5017136;28;20354;-81
2022/03/24 06:48:52;;;;;;;59.70;39.83;;;;;;;3.12;84.83;102842.56;5016947;28;21086;-80
2022/03/24 06:51:18;;;;;;;61.13;39.00;;;;;;;3.25;84.54;102844.34;5017030;28;20306;-81
2022/03/24 06:53:44;;;;;;;61.37;40.40;;;;;;;3.25;84.50;102837.16;5015862;28;20030;-80
2022/03/24 06:56:10;;;;;;;65.97;41.60;;;;;;;3.49;84.06;102844.31;5022658;28;20041;-81
2022/03/24 06:58:35;;;;;;;63.60;41.03;;;;;;;3.63;84.13;102848.63;5007885;28;20025;-80
2022/03/24 07:01:01;;;;;;;67.27;42.70;;;;;;;3.79;83.67;102841.13;5017075;28;20064;-80
2022/03/24 07:03:26;;;;;;;63.47;40.23;;;;;;;3.92;83.20;102845.53;5016326;28;20099;-80
2022/03/24 07:05:52;;;;;;;62.27;40.67;;;;;;;4.10;82.65;102844.13;4989955;28;20045;-81
2022/03/24 07:08:17;;;;;;;68.37;42.63;;;;;;;4.28;82.88;102843.66;5016289;28;20044;-81
2022/03/24 07:10:43;;;;;;;58.87;39.67;;;;;;;4.47;82.77;102841.19;5031367;28;20138;-80
2022/03/24 07:13:08;;;;;;;60.63;40.47;;;;;;;4.71;81.26;102854.50;5016216;28;20040;-80
2022/03/24 07:15:33;;;;;;;61.90;40.43;;;;;;;4.89;80.51;102846.78;5016224;28;20045;-80
2022/03/24 07:17:59;;;;;;;65.23;42.17;;;;;;;5.08;81.03;102842.59;5016325;28;20038;-80
2022/03/24 07:20:25;;;;;;;67.03;41.67;;;;;;;5.36;79.79;102856.44;5014697;28;20516;-80
2022/03/24 07:22:50;;;;;;;60.23;39.10;;;;;;;5.54;77.44;102852.19;5016407;28;20041;-81
2022/03/24 07:25:16;;;;;;;54.67;38.40;;;;;;;5.71;75.87;102845.41;5015332;28;20489;-80
2022/03/24 07:27:42;;;;;;;58.93;38.43;;;;;;;5.96;75.85;102856.75;5015784;28;20046;-81
2022/03/24 07:30:09;;;;;;;56.30;38.27;;;;;;;6.10;74.86;102858.28;5015603;28;20490;-81
2022/03/24 07:32:35;;;;;;;52.07;37.83;;;;;;;6.38;71.81;102853.19;5015785;28;20026;-80
2022/03/24 07:35:02;;;;;;;51.73;35.87;;;;;;;6.61;71.98;102861.94;5016794;28;20317;-80
2022/03/24 07:37:28;;;;;;;55.30;37.43;;;;;;;6.87;72.16;102856.91;5015851;28;20042;-82
2022/03/24 07:39:54;;;;;;;51.03;36.53;;;;;;;7.01;69.55;102854.81;5016192;28;20640;-81
2022/03/24 07:42:19;;;;;;;52.10;35.67;;;;;;;7.33;69.06;102867.19;5016514;28;20164;-80
2022/03/24 07:44:45;;;;;;;54.87;36.23;;;;;;;7.50;68.61;102854.88;5016490;28;20057;-81
2022/03/24 07:47:10;;;;;;;51.03;36.27;;;;;;;7.72;67.37;102864.50;5014982;28;20624;-82
2022/03/24 07:49:36;;;;;;;53.60;38.07;;;;;;;8.00;66.88;102859.22;5016067;28;20052;-82
2022/03/24 07:52:08;;;;;;;52.30;36.33;;;;;;;8.28;65.33;102866.41;5014180;28;20112;-81
2022/03/24 07:54:56;;;;;;;49.97;34.83;;;;;;;8.52;62.63;102862.34;5012385;28;20044;-81
2022/03/24 07:57:22;;;;;;;52.77;35.37;;;;;;;8.75;59.94;102853.88;5012020;28;20030;-82
2022/03/24 07:59:48;;;;;;;53.60;36.50;;;;;;;9.09;60.61;102866.75;5012203;28;20038;-83
2022/03/24 08:02:13;;;;;;;57.53;38.10;;;;;;;9.29;60.95;102868.31;5011499;28;20467;-82
2022/03/24 08:04:39;;;;;;;54.57;36.63;;;;;;;9.55;58.99;102870.25;5010468;28;20413;-82
2022/03/24 08:07:04;;;;;;;52.23;37.67;;;;;;;9.73;60.39;102872.94;5011331;28;20033;-82
2022/03/24 08:09:33;;;;;;;52.70;36.63;;;;;;;10.05;58.29;102870.63;5011982;28;20414;-82
2022/03/24 08:11:59;;;;;;;56.90;38.87;;;;;;;10.00;56.30;102867.56;5001426;28;20093;-82
2022/03/24 08:14:26;;;;;;;55.83;37.30;;;;;;;10.40;57.90;102874.28;5011966;28;20692;-82
2022/03/24 08:16:51;;;;;;;53.77;37.17;;;;;;;10.63;57.11;102864.59;5011843;28;20059;-82
2022/03/24 08:19:17;;;;;;;51.23;37.73;;;;;;;11.14;56.14;102874.59;5011764;28;20067;-82
2022/03/24 08:21:42;;;;;;;51.03;36.03;;;;;;;11.51;52.63;102877.88;5010275;28;20466;-82
2022/03/24 08:24:08;;;;;;;48.30;35.40;;;;;;;11.95;54.02;102883.00;4988017;28;20029;-82
2022/03/24 08:26:40;;;;;;;51.77;35.70;;;;;;;12.28;50.83;102883.78;5011555;28;20048;-82
2022/03/24 08:29:06;;;;;;;46.77;34.60;;;;;;;12.85;48.35;102884.59;5011796;28;20040;-82
2022/03/24 08:31:33;;;;;;;46.77;33.70;;;;;;;13.30;48.65;102887.59;5011377;28;20037;-82
2022/03/24 08:33:58;;;;;;;47.80;33.27;;;;;;;13.79;48.51;102883.69;5011411;28;20037;-82
2022/03/24 08:36:25;;;;;;;47.00;33.73;;;;;;;13.99;44.63;102893.06;5011076;28;20645;-82
2022/03/24 08:38:51;;;;;;;48.17;34.30;;;;;;;14.12;42.88;102875.22;5011263;28;20132;-82
2022/03/24 08:41:16;;;;;;;49.20;33.60;;;;;;;14.72;45.19;102889.75;5009229;28;20071;-82
2022/03/24 08:43:41;;;;;;;47.47;33.80;;;;;;;14.99;41.41;102877.28;5011690;28;20655;-82
2022/03/24 08:46:09;;;;;;;49.53;33.67;;;;;;;15.58;41.00;102885.47;5010605;28;20046;-82
2022/03/24 08:48:35;;;;;;;43.03;33.10;;;;;;;15.79;40.20;102882.72;5011368;28;20033;-82
2022/03/24 08:51:01;;;;;;;43.07;33.10;;;;;;;16.36;38.10;102889.06;5009714;28;20578;-80
2022/03/24 08:53:26;;;;;;;43.63;32.60;;;;;;;16.86;38.57;102891.66;5026312;28;20049;-80
2022/03/24 08:55:52;;;;;;;45.07;32.70;;;;;;;16.91;37.43;102898.44;5011556;28;20076;-80
2022/03/24 08:58:18;;;;;;;44.70;34.40;;;;;;;16.51;36.87;102888.94;5009077;28;20781;-79
2022/03/24 09:00:46;;;;;;;45.07;34.20;;;;;;;17.19;37.49;102890.94;5011593;28;20045;-80
2022/03/24 09:03:12;;;;;;;36.73;28.93;;;;;;;17.70;34.21;102889.56;4987019;28;20048;-80
2022/03/24 09:05:37;;;;;;;37.85;29.77;;;;;;;17.61;35.46;102887.22;5011328;28;20041;-80
2022/03/24 09:08:04;;;;;;;42.42;31.73;;;;;;;17.59;36.18;102898.41;5011042;28;20033;-80
2022/03/24 09:10:30;;;;;;;34.42;28.27;;;;;;;16.50;34.24;102889.16;5010203;28;20060;-80
2022/03/24 09:12:56;;;;;;;38.83;29.58;;;;;;;16.51;35.86;102894.44;5010475;28;20045;-80
2022/03/24 09:15:21;;;;;;;37.15;29.50;;;;;;;16.56;36.49;102896.53;5011494;28;20045;-80
2022/03/24 09:17:47;;;;;;;38.08;28.65;;;;;;;16.73;35.99;102896.19;5013040;28;20049;-80
2022/03/24 09:20:16;;;;;;;35.95;28.20;;;;;;;17.02;37.14;102895.94;5014523;28;20091;-81
2022/03/24 09:22:43;;;;;;;34.80;27.52;;;;;;;17.22;37.11;102906.13;5014974;28;20034;-80
2022/03/24 09:25:10;;;;;;;34.25;26.75;;;;;;;17.21;35.37;102896.22;5015122;28;20045;-80
2022/03/24 09:27:36;;;;;;;36.05;28.33;;;;;;;17.49;34.78;102900.72;5014388;28;20036;-81
2022/03/24 09:30:04;;;;;;;33.97;27.90;;;;;;;17.94;33.78;102900.13;5030348;28;20041;-80
2022/03/24 09:32:29;;;;;;;32.63;26.85;;;;;;;18.10;32.87;102898.88;5014229;28;20155;-80
2022/03/24 09:34:55;;;;;;;30.33;26.05;;;;;;;17.25;31.89;102897.50;5022747;28;20042;-80
2022/03/24 09:37:22;;;;;;;34.58;28.50;;;;;;;17.22;34.85;102906.13;5013977;28;20044;-80
2022/03/24 09:39:48;;;;;;;32.75;27.55;;;;;;;17.23;34.06;102905.09;5014673;28;20052;-80
2022/03/24 09:42:14;;;;;;;29.90;24.52;;;;;;;18.10;32.24;102905.22;5007825;28;20044;-79
2022/03/24 09:44:42;;;;;;;28.48;22.88;;;;;;;18.47;31.31;102893.75;5014871;28;20041;-80
2022/03/24 09:47:12;;;;;;;27.63;23.90;;;;;;;19.36;32.96;102905.00;5013906;28;21103;-78
2022/03/24 09:49:40;;;;;;;26.58;22.67;;;;;;;19.98;29.96;102910.72;5029282;28;20487;-78
2022/03/24 09:52:08;;;;;;;27.05;22.67;;;;;;;20.40;26.62;102902.69;5022198;28;20029;-79
2022/03/24 09:54:33;;;;;;;30.50;23.55;;;;;;;20.72;27.13;102893.47;5017404;28;20038;-80
2022/03/24 09:57:04;;;;;;;28.55;23.42;;;;;;;20.42;27.03;102895.03;5017877;28;20068;-80
2022/03/24 09:59:29;;;;;;;29.70;23.67;;;;;;;20.40;27.77;102897.19;5018091;28;20033;-78
2022/03/24 10:01:55;;;;;;;23.25;20.02;;;;;;;20.69;24.01;102894.75;5016004;28;20499;-79
2022/03/24 10:04:21;;;;;;;26.00;22.45;;;;;;;20.93;24.81;102903.19;5015552;28;20499;-79
2022/03/24 10:07:01;;;;;;;29.30;22.40;;;;;;;21.40;25.64;102900.59;5014386;28;20045;-79
2022/03/24 10:09:44;;;;;;;23.85;19.83;;;;;;;21.89;23.39;102894.13;5021446;28;20041;-80
2022/03/24 10:12:24;;;;;;;26.05;22.02;;;;;;;21.56;25.53;102898.28;5015298;28;20040;-80
2022/03/24 10:15:06;;;;;;;24.63;21.90;;;;;;;22.03;25.22;102898.34;5015663;28;20029;-80
2022/03/24 10:17:32;;;;;;;24.55;21.67;;;;;;;21.39;24.81;102898.94;5015344;28;20025;-80
2022/03/24 10:19:57;;;;;;;27.67;22.10;;;;;;;21.96;24.99;102889.31;5032188;28;20049;-80
2022/03/24 10:22:24;;;;;;;29.80;23.27;;;;;;;22.12;24.32;102890.53;5016501;28;20504;-80
2022/03/24 10:24:50;;;;;;;28.65;23.98;;;;;;;22.55;27.06;102897.59;5013935;28;20033;-79
2022/03/24 10:27:24;;;;;;;28.65;24.08;;;;;;;22.30;23.97;102886.78;5013697;28;20397;-80
2022/03/24 10:29:54;;;;;;;;;;;;;;;23.30;23.74;102881.16;5006720;28;20501;-80
2022/03/24 10:32:20;;;;;;;28.67;25.58;;;;;;;22.27;24.44;102884.53;5014027;28;19925;-79
2022/03/24 10:34:50;;;;;;;29.95;23.95;;;;;;;21.25;24.29;102881.72;5014014;28;20115;-79
2022/03/24 10:37:18;;;;;;;30.70;23.90;;;;;;;21.08;25.36;102881.56;5013429;28;21237;-76
2022/03/24 10:40:19;;;;;;;25.35;22.15;;;;;;;21.72;24.90;102878.28;5014011;28;20037;-80
2022/03/24 10:42:45;;;;;;;31.02;23.92;;;;;;;20.95;23.77;102890.00;4944803;28;20067;-80
2022/03/24 10:45:17;;;;;;;27.02;22.80;;;;;;;21.42;23.39;102892.94;4999664;28;20045;-80
2022/03/24 10:47:44;;;;;;;23.27;17.08;;;;;;;20.72;22.95;102883.28;5013594;28;20037;-80
2022/03/24 10:50:25;;;;;;;19.70;16.25;;;;;;;21.50;24.96;102879.88;5013569;28;20037;-78
2022/03/24 10:52:51;;;;;;;20.52;16.23;;;;;;;21.46;20.99;102884.19;5013384;28;20049;-79
2022/03/24 10:55:29;;;;;;;22.77;16.92;;;;;;;21.77;22.72;102879.47;5014023;28;20508;-77
2022/03/24 10:57:56;;;;;;;21.90;17.42;;;;;;;21.23;21.21;102875.63;5013141;28;20029;-80
2022/03/24 11:00:22;;;;;;;21.27;16.98;;;;;;;21.75;22.62;102879.72;5013287;28;20774;-81
2022/03/24 11:02:48;;;;;;;21.65;17.42;;;;;;;21.17;20.21;102856.41;5012861;28;20052;-80
2022/03/24 11:05:13;;;;;;;21.27;17.15;;;;;;;21.73;22.48;102879.97;5013705;28;20060;-80
2022/03/24 11:07:39;;;;;;;22.73;17.10;;;;;;;22.04;24.75;102866.06;5012761;28;20095;-80
2022/03/24 11:10:12;;;;;;;22.90;17.08;;;;;;;22.19;21.70;102873.84;5013008;28;20071;-81
2022/03/24 11:12:38;;;;;;;21.40;16.87;;;;;;;22.51;21.37;102873.50;5012899;28;20046;-79
2022/03/24 11:15:07;;;;;;;21.17;16.35;;;;;;;22.69;22.09;102873.31;5011635;28;20050;-81
2022/03/24 11:17:34;;;;;;;20.50;16.00;;;;;;;22.36;18.55;102868.47;5002785;28;20037;-81
2022/03/24 11:20:03;;;;;;;21.85;16.48;;;;;;;22.38;20.54;102872.66;5013068;28;20048;-80